Wetterstation Vordersexau
Wetterdaten: Woche 14.04.14 - 20.04.14 (KW16)
Datum Zeit Temp. A. Feuchte A. Luftdruck Regen Wind Richtung Taupunkt Windchill Windben
14.04.2014 00:00 5,8 C 73 % 990,8 hPa 0,0 l/m 0,0 km/h SO 1,3 C 5,8 C 0,0 km/h
14.04.2014 01:00 4,7 C 77 % 991,2 hPa 0,0 l/m 0,0 km/h SO 1,0 C 4,7 C 0,0 km/h
14.04.2014 02:00 4,4 C 80 % 990,5 hPa 0,0 l/m 0,0 km/h SO 1,3 C 4,4 C 0,0 km/h
14.04.2014 03:00 3,8 C 82 % 990,8 hPa 0,0 l/m 0,0 km/h O-SO 1,0 C 3,8 C 0,0 km/h
14.04.2014 04:00 3,5 C 83 % 990,7 hPa 0,0 l/m 0,0 km/h O-SO 0,9 C 3,5 C 0,0 km/h
14.04.2014 05:00 5,2 C 83 % 990,5 hPa 0,0 l/m 0,0 km/h N-NW 2,6 C 5,2 C 0,0 km/h
14.04.2014 06:00 5,9 C 83 % 990,4 hPa 0,0 l/m 0,0 km/h NO 3,2 C 5,9 C 0,0 km/h
14.04.2014 07:00 6,4 C 83 % 990,5 hPa 0,0 l/m 0,0 km/h N-NO 3,7 C 6,4 C 0,0 km/h
14.04.2014 08:00 8,7 C 82 % 990,5 hPa 0,0 l/m 0,0 km/h W 5,8 C 8,7 C 0,0 km/h
14.04.2014 09:00 12,7 C 68 % 990,4 hPa 0,0 l/m 0,0 km/h W-SW 6,9 C 12,7 C 0,0 km/h
14.04.2014 10:00 14,6 C 62 % 990,1 hPa 0,0 l/m 21,4 km/h W 7,4 C 8,9 C 11,9 km/h
14.04.2014 11:00 19,4 C 48 % 989,7 hPa 0,0 l/m 9,7 km/h W-NW 8,1 C 18,1 C 5,4 km/h
14.04.2014 12:00 15,6 C 51 % 989,5 hPa 0,0 l/m 12,3 km/h W-NW 5,5 C 12,8 C 6,8 km/h
14.04.2014 13:00 18,3 C 46 % 989,4 hPa 0,0 l/m 3,9 km/h NW 6,5 C 18,3 C 2,2 km/h
14.04.2014 14:00 19,4 C 42 % 989,2 hPa 0,0 l/m 20,1 km/h N-NW 6,2 C 15,4 C 11,2 km/h
14.04.2014 15:00 20,5 C 38 % 989,2 hPa 0,0 l/m 8,4 km/h W-NW 5,7 C 19,7 C 4,7 km/h
14.04.2014 16:00 21,1 C 31 % 989,6 hPa 0,0 l/m 5,8 km/h NW 3,3 C 21,1 C 3,2 km/h
14.04.2014 17:00 22,6 C 29 % 989,6 hPa 0,0 l/m 14,3 km/h NW 3,7 C 20,5 C 7,9 km/h
14.04.2014 18:00 14,7 C 42 % 989,7 hPa 0,0 l/m 13,6 km/h NW 1,9 C 11,3 C 7,6 km/h
14.04.2014 19:00 14,9 C 42 % 989,8 hPa 0,0 l/m 0,0 km/h W 2,1 C 14,9 C 0,0 km/h
14.04.2014 20:00 11,3 C 49 % 990,1 hPa 0,0 l/m 0,0 km/h N-NW 1,0 C 11,3 C 0,0 km/h
14.04.2014 21:00 8,2 C 56 % 990,5 hPa 0,0 l/m 0,0 km/h NW -0,0 C 8,2 C 0,0 km/h
14.04.2014 22:00 7,4 C 61 % 991,0 hPa 0,0 l/m 0,0 km/h N-NO 0,4 C 7,4 C 0,0 km/h
14.04.2014 23:00 6,8 C 61 % 991,6 hPa 0,0 l/m 0,7 km/h N-NO -0,2 C 6,8 C 0,7 km/h
15.04.2014 00:00 4,7 C 66 % 992,3 hPa 0,0 l/m 0,0 km/h N-NO -1,1 C 4,7 C 0,0 km/h
15.04.2014 01:00 5,0 C 64 % 993,0 hPa 0,0 l/m 0,0 km/h O-NO -1,2 C 5,0 C 0,0 km/h
15.04.2014 02:00 5,8 C 65 % 993,1 hPa 0,0 l/m 0,0 km/h N-NW -0,3 C 5,8 C 0,0 km/h
15.04.2014 03:00 3,9 C 68 % 993,3 hPa 0,0 l/m 0,0 km/h N-NO -1,5 C 3,9 C 0,0 km/h
15.04.2014 04:00 1,8 C 71 % 993,5 hPa 0,0 l/m 0,0 km/h NO -2,9 C 1,8 C 0,0 km/h
15.04.2014 05:00 0,7 C 76 % 993,9 hPa 0,0 l/m 0,0 km/h N-NO -3,0 C 0,7 C 0,0 km/h
15.04.2014 06:00 -0,5 C 79 % 994,0 hPa 0,0 l/m 0,0 km/h N-NO -3,7 C -0,5 C 0,0 km/h
15.04.2014 07:00 -0,6 C 81 % 994,7 hPa 0,0 l/m 0,0 km/h SO -3,4 C -0,6 C 0,0 km/h
15.04.2014 08:00 4,2 C 81 % 995,1 hPa 0,0 l/m 0,0 km/h W 1,2 C 4,2 C 0,0 km/h
15.04.2014 09:00 9,6 C 57 % 995,1 hPa 0,0 l/m 0,6 km/h NW 1,5 C 9,6 C 0,4 km/h
15.04.2014 10:00 14,4 C 45 % 995,1 hPa 0,0 l/m 0,0 km/h N 2,6 C 14,4 C 0,0 km/h
15.04.2014 11:00 11,6 C 46 % 995,4 hPa 0,0 l/m 0,0 km/h N-NO 0,4 C 11,6 C 0,0 km/h
15.04.2014 12:00 12,5 C 43 % 995,5 hPa 0,0 l/m 16,2 km/h NO 0,3 C 7,7 C 9,0 km/h
15.04.2014 13:00 15,4 C 37 % 995,6 hPa 0,0 l/m 19,4 km/h N 0,8 C 10,4 C 10,8 km/h
15.04.2014 14:00 13,3 C 37 % 995,4 hPa 0,0 l/m 20,1 km/h W -1,1 C 7,5 C 11,2 km/h
15.04.2014 15:00 16,6 C 34 % 995,3 hPa 0,0 l/m 7,1 km/h W 0,7 C 16,2 C 4,0 km/h
15.04.2014 16:00 17,5 C 31 % 995,1 hPa 0,0 l/m 10,4 km/h N-NO 0,2 C 15,7 C 5,8 km/h
15.04.2014 17:00 17,8 C 29 % 995,1 hPa 0,0 l/m 0,0 km/h N-NO -0,5 C 17,8 C 0,0 km/h
15.04.2014 18:00 17,6 C 28 % 995,1 hPa 0,0 l/m 3,9 km/h N -1,1 C 17,6 C 2,2 km/h
15.04.2014 19:00 14,2 C 32 % 995,0 hPa 0,0 l/m 9,7 km/h N-NO -2,2 C 12,4 C 5,4 km/h
15.04.2014 20:00 7,6 C 44 % 995,5 hPa 0,0 l/m 0,0 km/h N -3,9 C 7,6 C 0,0 km/h
15.04.2014 21:00 3,6 C 56 % 996,2 hPa 0,0 l/m 0,0 km/h O-SO -4,3 C 3,6 C 0,0 km/h
15.04.2014 22:00 1,9 C 64 % 996,5 hPa 0,0 l/m 0,0 km/h SO -4,2 C 1,9 C 0,0 km/h
15.04.2014 23:00 1,6 C 70 % 996,8 hPa 0,0 l/m 0,0 km/h SO -3,3 C 1,6 C 0,0 km/h
16.04.2014 00:00 3,5 C 69 % 997,0 hPa 0,0 l/m 1,1 km/h O-SO -1,6 C 3,5 C 1,1 km/h
16.04.2014 01:00 2,3 C 71 % 997,1 hPa 0,0 l/m 0,0 km/h SO -2,4 C 2,3 C 0,0 km/h
16.04.2014 02:00 0,4 C 73 % 997,1 hPa 0,0 l/m 0,0 km/h O-SO -3,9 C 0,4 C 0,0 km/h
16.04.2014 03:00 0,6 C 75 % 996,8 hPa 0,0 l/m 0,0 km/h SO -3,3 C 0,6 C 0,0 km/h
16.04.2014 04:00 0,4 C 77 % 996,8 hPa 0,0 l/m 0,0 km/h S-SW -3,1 C 0,4 C 0,0 km/h
16.04.2014 05:00 -1,2 C 79 % 996,7 hPa 0,0 l/m 0,0 km/h S-SW -4,4 C -1,2 C 0,0 km/h
16.04.2014 06:00 -2,2 C 80 % 997,2 hPa 0,0 l/m 0,0 km/h SW -5,2 C -2,2 C 0,0 km/h
16.04.2014 07:00 -2,2 C 81 % 997,4 hPa 0,0 l/m 0,0 km/h SW -5,0 C -2,2 C 0,0 km/h
16.04.2014 08:00 2,5 C 83 % 997,4 hPa 0,0 l/m 0,0 km/h S-SO -0,1 C 2,5 C 0,0 km/h
16.04.2014 09:00 14,4 C 50 % 997,4 hPa 0,0 l/m 0,0 km/h NO 4,1 C 14,4 C 0,0 km/h
16.04.2014 10:00 15,0 C 39 % 997,4 hPa 0,0 l/m 0,0 km/h O-SO 1,2 C 15,0 C 0,0 km/h
16.04.2014 11:00 16,3 C 35 % 997,1 hPa 0,0 l/m 0,6 km/h O-SO 0,8 C 16,3 C 0,4 km/h
16.04.2014 12:00 16,8 C 33 % 997,1 hPa 0,0 l/m 3,2 km/h SO 0,4 C 16,8 C 1,8 km/h
16.04.2014 13:00 18,0 C 34 % 996,5 hPa 0,0 l/m 0,6 km/h O-SO 1,9 C 18,0 C 0,4 km/h
16.04.2014 14:00 18,6 C 33 % 996,3 hPa 0,0 l/m 0,0 km/h O 2,0 C 18,6 C 0,0 km/h
16.04.2014 15:00 20,8 C 29 % 996,1 hPa 0,0 l/m 0,6 km/h O-NO 2,1 C 20,8 C 0,4 km/h
16.04.2014 16:00 22,5 C 24 % 996,0 hPa 0,0 l/m 20,1 km/h SO 0,9 C 19,4 C 11,2 km/h
16.04.2014 17:00 22,8 C 24 % 995,7 hPa 0,0 l/m 4,5 km/h O-SO 1,2 C 22,8 C 2,5 km/h
16.04.2014 18:00 21,9 C 25 % 995,7 hPa 0,0 l/m 1,9 km/h NO 1,0 C 21,9 C 1,1 km/h
16.04.2014 19:00 17,9 C 28 % 995,9 hPa 0,0 l/m 10,4 km/h O -0,9 C 16,2 C 5,8 km/h
16.04.2014 20:00 10,5 C 36 % 996,1 hPa 0,0 l/m 0,0 km/h O-SO -3,9 C 10,5 C 0,0 km/h
16.04.2014 21:00 7,4 C 44 % 996,7 hPa 0,0 l/m 0,0 km/h N-NO -4,0 C 7,4 C 0,0 km/h
16.04.2014 22:00 4,3 C 55 % 996,8 hPa 0,0 l/m 0,0 km/h N-NO -3,9 C 4,3 C 0,0 km/h
16.04.2014 23:00 4,5 C 58 % 996,6 hPa 0,0 l/m 0,0 km/h SO -3,0 C 4,5 C 0,0 km/h
17.04.2014 00:00 2,3 C 64 % 996,1 hPa 0,0 l/m 0,0 km/h O -3,8 C 2,3 C 0,0 km/h
17.04.2014 01:00 0,8 C 70 % 996,3 hPa 0,0 l/m 0,0 km/h O-SO -4,0 C 0,8 C 0,0 km/h
17.04.2014 02:00 0,3 C 72 % 995,9 hPa 0,0 l/m 0,0 km/h SO -4,1 C 0,3 C 0,0 km/h
17.04.2014 03:00 0,2 C 75 % 995,3 hPa 0,0 l/m 1,8 km/h N-NO -3,7 C 0,2 C 1,8 km/h
17.04.2014 04:00 -0,2 C 77 % 994,9 hPa 0,0 l/m 0,0 km/h O-SO -3,7 C -0,2 C 0,0 km/h
17.04.2014 05:00 -1,1 C 79 % 994,5 hPa 0,0 l/m 0,0 km/h O -4,3 C -1,1 C 0,0 km/h
17.04.2014 06:00 -1,9 C 80 % 994,0 hPa 0,0 l/m 0,0 km/h O -4,9 C -1,9 C 0,0 km/h
17.04.2014 07:00 -1,6 C 82 % 993,9 hPa 0,0 l/m 0,0 km/h O-SO -4,3 C -1,6 C 0,0 km/h
17.04.2014 08:00 3,1 C 83 % 993,9 hPa 0,0 l/m 0,0 km/h S-SO 0,5 C 3,1 C 0,0 km/h
17.04.2014 09:00 16,0 C 49 % 993,5 hPa 0,0 l/m 0,0 km/h NW 5,3 C 16,0 C 0,0 km/h
17.04.2014 10:00 17,9 C 36 % 993,1 hPa 0,0 l/m 0,0 km/h NO 2,6 C 17,9 C 0,0 km/h
17.04.2014 11:00 18,9 C 28 % 992,7 hPa 0,0 l/m 0,0 km/h W -0,0 C 18,9 C 0,0 km/h
17.04.2014 12:00 20,5 C 29 % 992,0 hPa 0,0 l/m 9,1 km/h N-NO 1,9 C 19,5 C 5,0 km/h
17.04.2014 13:00 20,5 C 31 % 991,0 hPa 0,0 l/m 0,0 km/h N-NW 2,8 C 20,5 C 0,0 km/h
17.04.2014 14:00 20,2 C 31 % 989,8 hPa 0,0 l/m 1,9 km/h W 2,5 C 20,2 C 1,1 km/h
17.04.2014 15:00 22,9 C 28 % 989,0 hPa 0,0 l/m 7,8 km/h N 3,4 C 22,5 C 4,3 km/h
17.04.2014 16:00 25,6 C 24 % 988,5 hPa 0,0 l/m 0,6 km/h N-NO 3,5 C 25,6 C 0,4 km/h
17.04.2014 17:00 26,0 C 24 % 987,7 hPa 0,0 l/m 3,2 km/h W-NW 3,9 C 26,0 C 1,8 km/h
17.04.2014 18:00 25,4 C 23 % 987,3 hPa 0,0 l/m 0,0 km/h N-NO 2,8 C 25,4 C 0,0 km/h
17.04.2014 19:00 24,1 C 24 % 986,8 hPa 0,0 l/m 0,0 km/h SW 2,3 C 24,1 C 0,0 km/h
17.04.2014 20:00 13,2 C 40 % 986,8 hPa 0,0 l/m 0,0 km/h S-SW -0,1 C 13,2 C 0,0 km/h
17.04.2014 21:00 7,9 C 55 % 986,6 hPa 0,0 l/m 0,0 km/h O-SO -0,6 C 7,9 C 0,0 km/h
17.04.2014 22:00 6,3 C 63 % 986,6 hPa 0,0 l/m 0,0 km/h O-SO -0,2 C 6,3 C 0,0 km/h
17.04.2014 23:00 5,8 C 66 % 986,2 hPa 0,0 l/m 0,0 km/h O-SO -0,0 C 5,8 C 0,0 km/h
18.04.2014 00:00 4,4 C 70 % 986,0 hPa 0,0 l/m 0,0 km/h O -0,6 C 4,4 C 0,0 km/h
18.04.2014 01:00 4,1 C 73 % 985,5 hPa 0,0 l/m 0,0 km/h O-SO -0,3 C 4,1 C 0,0 km/h
18.04.2014 02:00 4,9 C 73 % 984,9 hPa 0,0 l/m 0,0 km/h O 0,5 C 4,9 C 0,0 km/h
18.04.2014 03:00 5,1 C 73 % 984,6 hPa 0,0 l/m 0,0 km/h SO 0,7 C 5,1 C 0,0 km/h
18.04.2014 04:00 5,4 C 73 % 984,2 hPa 0,0 l/m 0,0 km/h O-SO 1,0 C 5,4 C 0,0 km/h
18.04.2014 05:00 5,8 C 73 % 983,1 hPa 0,0 l/m 0,0 km/h O 1,3 C 5,8 C 0,0 km/h
18.04.2014 06:00 6,3 C 73 % 983,0 hPa 0,0 l/m 0,0 km/h S-SW 1,8 C 6,3 C 0,0 km/h
18.04.2014 07:00 6,8 C 74 % 983,1 hPa 0,0 l/m 0,0 km/h SO 2,5 C 6,8 C 0,0 km/h
18.04.2014 08:00 7,1 C 79 % 983,5 hPa 0,0 l/m 0,0 km/h SO 3,7 C 7,1 C 0,0 km/h
18.04.2014 09:00 8,9 C 81 % 982,9 hPa 0,0 l/m 0,0 km/h S 5,8 C 8,9 C 0,0 km/h
18.04.2014 10:00 11,2 C 74 % 982,5 hPa 0,0 l/m 2,6 km/h W-NW 6,7 C 11,2 C 1,4 km/h
18.04.2014 11:00 10,9 C 74 % 982,4 hPa 0,0 l/m 0,0 km/h N-NO 6,5 C 10,9 C 0,0 km/h
18.04.2014 12:00 10,9 C 71 % 982,4 hPa 0,0 l/m 0,0 km/h N-NO 5,9 C 10,9 C 0,0 km/h
18.04.2014 13:00 9,5 C 68 % 982,9 hPa 0,0 l/m 20,7 km/h N-NO 3,9 C 2,4 C 11,5 km/h
18.04.2014 14:00 8,6 C 68 % 983,3 hPa 0,0 l/m 0,0 km/h O-SO 3,0 C 8,6 C 0,0 km/h
18.04.2014 15:00 8,1 C 74 % 983,3 hPa 0,2 l/m 0,0 km/h N-NO 3,8 C 8,1 C 0,0 km/h
18.04.2014 16:00 8,9 C 73 % 983,2 hPa 0,0 l/m 0,0 km/h W 4,3 C 8,9 C 0,0 km/h
18.04.2014 17:00 11,6 C 62 % 982,8 hPa 0,0 l/m 0,0 km/h N 4,6 C 11,6 C 0,0 km/h
18.04.2014 18:00 10,9 C 61 % 983,3 hPa 0,0 l/m 0,0 km/h O-NO 3,7 C 10,9 C 0,0 km/h
18.04.2014 19:00 6,5 C 74 % 983,8 hPa 0,2 l/m 0,0 km/h S-SO 2,2 C 6,5 C 0,0 km/h
18.04.2014 20:00 6,3 C 76 % 983,9 hPa 0,0 l/m 0,0 km/h N-NO 2,4 C 6,3 C 0,0 km/h
18.04.2014 21:00 4,5 C 81 % 984,9 hPa 0,0 l/m 0,0 km/h N-NW 1,5 C 4,5 C 0,0 km/h
18.04.2014 22:00 3,3 C 82 % 984,8 hPa 0,0 l/m 0,0 km/h NO 0,5 C 3,3 C 0,0 km/h
18.04.2014 23:00 2,7 C 84 % 984,9 hPa 0,0 l/m 0,0 km/h O 0,3 C 2,7 C 0,0 km/h
19.04.2014 00:00 3,2 C 84 % 984,8 hPa 0,0 l/m 0,0 km/h O 0,8 C 3,2 C 0,0 km/h
19.04.2014 01:00 2,8 C 84 % 984,3 hPa 0,0 l/m 0,0 km/h O-NO 0,4 C 2,8 C 0,0 km/h
19.04.2014 02:00 1,4 C 84 % 983,7 hPa 0,0 l/m 0,0 km/h O-NO -1,0 C 1,4 C 0,0 km/h
19.04.2014 03:00 0,6 C 85 % 983,4 hPa 0,0 l/m 0,0 km/h NO -1,6 C 0,6 C 0,0 km/h
19.04.2014 04:00 0,6 C 84 % 983,1 hPa 0,0 l/m 0,0 km/h O-NO -1,8 C 0,6 C 0,0 km/h
19.04.2014 05:00 0,8 C 84 % 982,6 hPa 0,0 l/m 0,0 km/h N-NO -1,6 C 0,8 C 0,0 km/h
19.04.2014 06:00 0,9 C 84 % 982,7 hPa 0,0 l/m 0,0 km/h N-NO -1,5 C 0,9 C 0,0 km/h
19.04.2014 07:00 1,3 C 83 % 982,6 hPa 0,0 l/m 0,0 km/h O-SO -1,3 C 1,3 C 0,0 km/h
19.04.2014 08:00 3,9 C 81 % 982,4 hPa 0,0 l/m 0,0 km/h N 0,9 C 3,9 C 0,0 km/h
19.04.2014 09:00 7,4 C 82 % 982,2 hPa 0,0 l/m 11,7 km/h N-NO 4,5 C 3,7 C 6,5 km/h
19.04.2014 10:00 7,3 C 78 % 981,9 hPa 0,0 l/m 5,8 km/h N 3,7 C 7,3 C 3,2 km/h
19.04.2014 11:00 8,3 C 75 % 981,9 hPa 0,0 l/m 2,6 km/h N 4,1 C 8,3 C 1,4 km/h
19.04.2014 12:00 8,6 C 73 % 981,5 hPa 0,0 l/m 9,7 km/h NO 4,0 C 6,2 C 5,4 km/h
19.04.2014 13:00 9,2 C 72 % 981,6 hPa 0,0 l/m 0,0 km/h N-NO 4,4 C 9,2 C 0,0 km/h
19.04.2014 14:00 9,7 C 70 % 981,2 hPa 0,0 l/m 0,0 km/h N-NO 4,5 C 9,7 C 0,0 km/h
19.04.2014 15:00 10,0 C 70 % 980,8 hPa 0,0 l/m 0,0 km/h NO 4,8 C 10,0 C 0,0 km/h
19.04.2014 16:00 10,9 C 69 % 980,0 hPa 0,0 l/m 0,0 km/h N-NO 5,4 C 10,9 C 0,0 km/h
19.04.2014 17:00 10,7 C 70 % 979,8 hPa 0,0 l/m 0,0 km/h N 5,5 C 10,7 C 0,0 km/h
19.04.2014 18:00 10,4 C 72 % 979,8 hPa 0,0 l/m 0,0 km/h NW 5,6 C 10,4 C 0,0 km/h
19.04.2014 19:00 9,9 C 75 % 979,5 hPa 0,0 l/m 0,0 km/h NW 5,7 C 9,9 C 0,0 km/h
19.04.2014 20:00 9,0 C 77 % 979,5 hPa 0,0 l/m 0,0 km/h NW 5,2 C 9,0 C 0,0 km/h
19.04.2014 21:00 7,9 C 80 % 979,9 hPa 0,0 l/m 0,0 km/h O-NO 4,7 C 7,9 C 0,0 km/h
19.04.2014 22:00 7,8 C 81 % 979,2 hPa 0,0 l/m 0,0 km/h O-NO 4,7 C 7,8 C 0,0 km/h
19.04.2014 23:00 7,9 C 82 % 978,6 hPa 0,0 l/m 0,0 km/h O-SO 5,0 C 7,9 C 0,0 km/h
20.04.2014 00:00 7,6 C 83 % 978,4 hPa 0,0 l/m 0,0 km/h O 4,9 C 7,6 C 0,0 km/h
20.04.2014 01:00 7,8 C 83 % 977,9 hPa 0,0 l/m 0,0 km/h O-SO 5,1 C 7,8 C 0,0 km/h
20.04.2014 02:00 6,5 C 83 % 977,5 hPa 0,0 l/m 0,0 km/h O-SO 3,8 C 6,5 C 0,0 km/h
20.04.2014 03:00 6,4 C 84 % 977,7 hPa 0,0 l/m 0,0 km/h N-NO 3,9 C 6,4 C 0,0 km/h
20.04.2014 04:00 5,9 C 84 % 977,4 hPa 0,0 l/m 0,0 km/h O-NO 3,4 C 5,9 C 0,0 km/h
20.04.2014 05:00 5,8 C 83 % 977,2 hPa 0,0 l/m 0,0 km/h NO 3,1 C 5,8 C 0,0 km/h
20.04.2014 06:00 5,3 C 83 % 977,0 hPa 0,0 l/m 0,0 km/h SO 2,7 C 5,3 C 0,0 km/h
20.04.2014 07:00 5,8 C 82 % 976,9 hPa 0,0 l/m 0,0 km/h SO 3,0 C 5,8 C 0,0 km/h
20.04.2014 08:00 8,2 C 83 % 977,2 hPa 0,0 l/m 0,6 km/h SO 5,5 C 8,2 C 0,4 km/h
20.04.2014 09:00 9,1 C 83 % 977,1 hPa 0,0 l/m 0,0 km/h SO 6,4 C 9,1 C 0,0 km/h
20.04.2014 10:00 11,3 C 80 % 977,2 hPa 0,0 l/m 0,0 km/h W-SW 8,0 C 11,3 C 0,0 km/h
20.04.2014 11:00 13,9 C 70 % 977,0 hPa 0,0 l/m 0,0 km/h W-SW 8,5 C 13,9 C 0,0 km/h
20.04.2014 12:00 16,9 C 61 % 976,6 hPa 0,0 l/m 0,0 km/h SO 9,3 C 16,9 C 0,0 km/h
20.04.2014 13:00 20,9 C 52 % 976,3 hPa 0,0 l/m 6,5 km/h SO 10,7 C 20,9 C 3,6 km/h
20.04.2014 14:00 21,9 C 50 % 975,6 hPa 0,0 l/m 0,0 km/h N-NO 11,0 C 21,9 C 0,0 km/h
20.04.2014 15:00 20,7 C 46 % 974,9 hPa 0,0 l/m 0,0 km/h O-SO 8,7 C 20,7 C 0,0 km/h
20.04.2014 16:00 26,7 C 36 % 974,4 hPa 0,0 l/m 8,4 km/h N-NO 10,4 C 26,3 C 4,7 km/h
20.04.2014 17:00 28,1 C 33 % 974,1 hPa 0,0 l/m 9,7 km/h O 10,3 C 27,6 C 5,4 km/h
20.04.2014 18:00 27,6 C 33 % 973,9 hPa 0,0 l/m 0,0 km/h SO 9,9 C 27,6 C 0,0 km/h
20.04.2014 19:00 23,2 C 42 % 973,9 hPa 0,0 l/m 0,0 km/h SO 9,6 C 23,2 C 0,0 km/h
20.04.2014 20:00 15,8 C 55 % 974,5 hPa 0,0 l/m 0,0 km/h N-NO 6,8 C 15,8 C 0,0 km/h
20.04.2014 21:00 13,7 C 63 % 974,8 hPa 0,0 l/m 0,0 km/h SO 6,8 C 13,7 C 0,0 km/h
20.04.2014 22:00 12,3 C 69 % 975,2 hPa 0,0 l/m 0,0 km/h SO 6,8 C 12,3 C 0,0 km/h
20.04.2014 23:00 9,9 C 75 % 975,4 hPa 0,0 l/m 0,0 km/h O-NO 5,7 C 9,9 C 0,0 km/h
Min-Datum _ 16.04.14 17.04.14 20.04.14 - 14.04.14 - 16.04.14 16.04.14 14.04.14
_ Min-Zeit 06:19 18:19 18:19 - 00:19 - 06:19 06:19 00:19
Minimum _ -2,2 C 23 % 973,9 hPa - 0,0 km/h - -5,2 C -2,2 C 0,0 km/h
Max-Datum _ 20.04.14 19.04.14 16.04.14 18.04.14 14.04.14 - 20.04.14 20.04.14 14.04.14
_ Max-Zeit 17:19 03:19 07:19 15:19 10:19 - 14:19 17:19 10:19
Maximum _ 28,1 C 85 % 997,4 hPa 0,2 l/m 21,4 km/h
W
- 11,0 C 27,6 C 11,9 km/h
W
Durchschnitt _ 9,8 C 62 % 987,8 hPa #0,3 l/m 2,0 km/h N-NO 1,9 C 9,4 C 1,1 km/h
www.sexauwetter.de